createdAt,value
2018-07-04T00:00:45.438Z,19.05
2018-07-04T00:01:55.373Z,19.03
2018-07-04T00:03:05.156Z,18.98
2018-07-04T00:04:15.720Z,18.85
2018-07-04T00:05:26.500Z,18.79
2018-07-04T00:06:36.371Z,18.75
2018-07-04T00:07:46.283Z,18.82
2018-07-04T00:08:56.835Z,18.91
2018-07-04T00:10:06.701Z,18.80
2018-07-04T00:11:16.835Z,18.75
2018-07-04T00:12:27.025Z,18.79
2018-07-04T00:13:37.063Z,18.63
2018-07-04T00:14:46.873Z,18.53
2018-07-04T00:15:57.585Z,18.52
2018-07-04T00:17:08.589Z,18.52
2018-07-04T00:18:19.409Z,18.33
2018-07-04T00:19:29.383Z,18.33
2018-07-04T00:20:41.452Z,18.13
2018-07-04T00:21:51.194Z,18.04
2018-07-04T00:23:01.305Z,18.04
2018-07-04T00:24:11.794Z,18.02
2018-07-04T00:25:21.572Z,18.11
2018-07-04T00:26:31.381Z,18.27
2018-07-04T00:27:41.208Z,18.37
2018-07-04T00:28:51.329Z,18.48
2018-07-04T00:30:01.085Z,18.63
2018-07-04T00:31:10.804Z,18.76
2018-07-04T00:32:20.574Z,18.75
2018-07-04T00:33:45.732Z,18.57
2018-07-04T00:34:57.052Z,18.50
2018-07-04T00:36:11.362Z,18.36
2018-07-04T00:37:21.300Z,18.28
2018-07-04T00:38:31.928Z,18.18
2018-07-04T00:39:41.755Z,18.13
2018-07-04T00:40:55.699Z,18.05
2018-07-04T00:42:07.548Z,18.03
2018-07-04T00:43:17.742Z,17.98
2018-07-04T00:44:28.813Z,18.05
2018-07-04T00:45:38.842Z,17.94
2018-07-04T00:46:49.127Z,17.91
2018-07-04T00:48:00.618Z,17.92
2018-07-04T00:49:10.624Z,18.02
2018-07-04T00:50:20.370Z,18.09
2018-07-04T00:51:31.624Z,18.20
2018-07-04T00:52:41.800Z,18.23
2018-07-04T00:53:52.391Z,18.22
2018-07-04T00:55:02.095Z,18.21
2018-07-04T00:57:49.300Z,17.88
2018-07-04T00:59:00.440Z,17.92
2018-07-04T01:00:10.133Z,18.05
2018-07-04T01:01:19.844Z,18.16
2018-07-04T01:02:29.559Z,18.28
2018-07-04T01:03:39.643Z,18.40
2018-07-04T01:04:49.899Z,18.34
2018-07-04T01:05:59.730Z,18.31
2018-07-04T01:07:09.474Z,18.22
2018-07-04T01:08:19.356Z,17.97
2018-07-04T01:09:33.833Z,17.88
2018-07-04T01:10:44.018Z,17.84
2018-07-04T01:11:53.874Z,17.91
2018-07-04T01:13:03.764Z,18.03
2018-07-04T01:14:13.668Z,18.11
2018-07-04T01:15:23.700Z,18.13
2018-07-04T01:16:33.802Z,17.66
2018-07-04T01:17:43.507Z,17.54
2018-07-04T01:20:14.030Z,17.81
2018-07-04T01:21:23.896Z,17.84
2018-07-04T01:22:34.030Z,17.82
2018-07-04T01:23:43.874Z,17.35
2018-07-04T01:24:53.693Z,17.30
2018-07-04T01:26:03.555Z,17.41
2018-07-04T01:27:13.409Z,17.51
2018-07-04T01:28:27.492Z,17.70
2018-07-04T01:29:37.319Z,17.82
2018-07-04T01:30:47.121Z,17.80
2018-07-04T01:31:56.895Z,17.87
2018-07-04T01:33:06.591Z,17.92
2018-07-04T01:34:16.723Z,18.03
2018-07-04T01:35:26.609Z,18.06
2018-07-04T01:36:37.606Z,18.10
2018-07-04T01:37:47.300Z,18.17
2018-07-04T01:38:57.166Z,18.14
2018-07-04T01:40:07.639Z,18.08
2018-07-04T01:41:17.310Z,18.03
2018-07-04T01:42:27.158Z,17.80
2018-07-04T01:43:38.289Z,17.66
2018-07-04T01:44:49.138Z,17.65
2018-07-04T01:46:00.412Z,17.70
2018-07-04T01:47:10.225Z,17.79
2018-07-04T01:48:23.898Z,17.87
2018-07-04T01:49:34.222Z,17.86
2018-07-04T01:50:44.382Z,17.80
2018-07-04T01:51:54.500Z,17.71
2018-07-04T01:53:05.783Z,17.84
2018-07-04T01:54:15.834Z,17.93
2018-07-04T01:55:25.656Z,18.01
2018-07-04T01:56:38.195Z,18.11
2018-07-04T01:57:49.348Z,17.96
2018-07-04T01:59:01.946Z,17.89
2018-07-04T02:00:12.025Z,17.92
2018-07-04T02:01:23.363Z,18.00
2018-07-04T02:02:33.198Z,17.95
2018-07-04T02:03:43.374Z,17.79
2018-07-04T02:04:53.084Z,17.73
2018-07-04T02:06:02.907Z,17.78
2018-07-04T02:07:12.915Z,17.75
2018-07-04T02:08:22.787Z,17.80
2018-07-04T02:09:33.217Z,17.80
2018-07-04T02:10:43.048Z,17.82
2018-07-04T02:11:52.959Z,17.85
2018-07-04T02:13:02.745Z,17.80
2018-07-04T02:14:13.583Z,17.71
2018-07-04T02:15:23.546Z,17.68
2018-07-04T02:16:33.587Z,17.38
2018-07-04T02:17:43.439Z,17.37
2018-07-04T02:18:54.677Z,17.51
2018-07-04T02:20:04.400Z,17.63
2018-07-04T02:21:14.377Z,17.79
2018-07-04T02:22:24.808Z,17.79
2018-07-04T02:23:34.515Z,17.75
2018-07-04T02:24:44.265Z,17.69
2018-07-04T02:25:54.697Z,17.71
2018-07-04T02:27:04.906Z,17.72
2018-07-04T02:28:14.773Z,17.60
2018-07-04T02:29:24.531Z,17.21
2018-07-04T02:30:34.227Z,17.23
2018-07-04T02:31:44.048Z,17.11
2018-07-04T02:32:54.138Z,16.92
2018-07-04T02:34:04.006Z,16.82
2018-07-04T02:35:13.790Z,16.87
2018-07-04T02:36:23.577Z,16.93
2018-07-04T02:37:33.374Z,17.01
2018-07-04T02:38:43.116Z,17.21
2018-07-04T02:39:52.788Z,17.14
2018-07-04T02:41:02.464Z,17.27
2018-07-04T02:42:12.248Z,17.30
2018-07-04T02:43:21.960Z,17.14
2018-07-04T02:44:31.781Z,16.98
2018-07-04T02:45:41.433Z,16.90
2018-07-04T02:46:51.238Z,16.82
2018-07-04T02:48:01.063Z,16.83
2018-07-04T02:49:10.721Z,16.96
2018-07-04T02:50:20.835Z,17.07
2018-07-04T02:51:30.674Z,17.16
2018-07-04T02:52:41.336Z,17.12
2018-07-04T02:53:51.061Z,17.10
2018-07-04T02:55:00.719Z,17.22
2018-07-04T02:56:10.895Z,17.26
2018-07-04T02:57:20.743Z,17.28
2018-07-04T02:58:31.664Z,17.13
2018-07-04T02:59:41.423Z,16.94
2018-07-04T03:00:51.146Z,16.86
2018-07-04T03:02:01.222Z,16.77
2018-07-04T03:03:11.474Z,16.84
2018-07-04T03:04:21.165Z,16.80
2018-07-04T03:05:31.586Z,16.88
2018-07-04T03:06:41.388Z,16.93
2018-07-04T03:07:51.466Z,16.89
2018-07-04T03:09:01.169Z,16.96
2018-07-04T03:10:11.039Z,16.43
2018-07-04T03:11:20.886Z,16.59
2018-07-04T03:12:30.712Z,16.59
2018-07-04T03:13:41.050Z,16.78
2018-07-04T03:14:51.036Z,16.88
2018-07-04T03:16:02.068Z,17.05
2018-07-04T03:17:11.908Z,17.18
2018-07-04T03:18:21.756Z,17.23
2018-07-04T03:19:31.765Z,17.27
2018-07-04T03:20:41.433Z,17.32
2018-07-04T03:21:51.180Z,17.42
2018-07-04T03:23:00.855Z,17.52
2018-07-04T03:24:10.706Z,17.51
2018-07-04T03:25:22.226Z,17.47
2018-07-04T03:26:32.373Z,17.38
2018-07-04T03:27:43.016Z,17.33
2018-07-04T03:28:52.843Z,17.34
2018-07-04T03:30:02.673Z,17.27
2018-07-04T03:31:12.481Z,17.28
2018-07-04T03:32:22.171Z,17.32
2018-07-04T03:33:31.932Z,17.32
2018-07-04T03:34:41.565Z,17.36
2018-07-04T03:35:51.708Z,17.43
2018-07-04T03:37:01.894Z,17.43
2018-07-04T03:38:11.829Z,17.47
2018-07-04T03:39:21.674Z,17.50
2018-07-04T03:40:32.075Z,17.44
2018-07-04T03:41:42.636Z,17.49
2018-07-04T03:42:52.782Z,17.55
2018-07-04T03:44:02.577Z,17.55
2018-07-04T03:45:12.422Z,17.62
2018-07-04T03:46:22.252Z,17.65
2018-07-04T03:47:32.071Z,17.62
2018-07-04T03:48:41.858Z,17.64
2018-07-04T03:49:51.523Z,17.41
2018-07-04T03:51:01.234Z,17.14
2018-07-04T03:52:11.167Z,17.22
2018-07-04T03:53:20.830Z,17.35
2018-07-04T03:54:31.211Z,17.40
2018-07-04T03:55:42.583Z,17.35
2018-07-04T03:56:52.399Z,17.42
2018-07-04T03:58:02.237Z,17.34
2018-07-04T03:59:12.182Z,17.35
2018-07-04T04:00:23.212Z,17.18
2018-07-04T04:01:32.898Z,16.92
2018-07-04T04:02:42.710Z,16.83
2018-07-04T04:03:52.515Z,16.87
2018-07-04T04:05:02.345Z,16.88
2018-07-04T04:06:12.432Z,16.92
2018-07-04T04:07:22.506Z,17.08
2018-07-04T04:08:34.080Z,17.21
2018-07-04T04:09:43.952Z,17.33
2018-07-04T04:10:54.529Z,17.40
2018-07-04T04:12:04.746Z,17.47
2018-07-04T04:13:14.469Z,17.48
2018-07-04T04:14:24.230Z,17.43
2018-07-04T04:15:33.979Z,17.45
2018-07-04T04:16:44.130Z,17.51
2018-07-04T04:17:55.691Z,17.53
2018-07-04T04:19:05.412Z,17.44
2018-07-04T04:20:15.270Z,17.32
2018-07-04T04:21:25.069Z,17.12
2018-07-04T04:22:35.147Z,16.96
2018-07-04T04:23:45.180Z,16.84
2018-07-04T04:24:55.358Z,16.71
2018-07-04T04:26:05.767Z,16.76
2018-07-04T04:27:16.187Z,16.94
2018-07-04T04:28:26.273Z,17.04
2018-07-04T04:29:36.588Z,17.10
2018-07-04T04:30:46.284Z,17.02
2018-07-04T04:31:56.039Z,16.94
2018-07-04T04:33:05.713Z,16.88
2018-07-04T04:34:15.397Z,16.80
2018-07-04T04:35:25.631Z,16.77
2018-07-04T04:36:35.314Z,16.84
2018-07-04T04:37:45.164Z,16.96
2018-07-04T04:38:54.842Z,17.08
2018-07-04T04:40:04.513Z,17.22
2018-07-04T04:41:15.138Z,17.27
2018-07-04T04:42:24.790Z,17.32
2018-07-04T04:43:34.617Z,17.31
2018-07-04T04:44:44.393Z,17.43
2018-07-04T04:45:54.333Z,17.52
2018-07-04T04:47:06.498Z,17.45
2018-07-04T04:48:16.760Z,17.31
2018-07-04T04:49:26.680Z,17.24
2018-07-04T04:50:36.857Z,17.10
2018-07-04T04:51:46.626Z,17.08
2018-07-04T04:52:56.770Z,17.27
2018-07-04T04:54:06.580Z,17.36
2018-07-04T04:55:16.392Z,17.44
2018-07-04T04:56:26.240Z,17.10
2018-07-04T04:57:36.067Z,17.07
2018-07-04T04:58:46.851Z,17.14
2018-07-04T04:59:57.801Z,17.15
2018-07-04T05:01:08.853Z,17.30
2018-07-04T05:02:20.275Z,17.48
2018-07-04T05:03:30.189Z,17.66
2018-07-04T05:04:40.645Z,17.69
2018-07-04T05:05:50.541Z,17.62
2018-07-04T05:07:00.824Z,17.70
2018-07-04T05:08:10.813Z,17.85
2018-07-04T05:09:20.531Z,17.88
2018-07-04T05:10:34.770Z,17.90
2018-07-04T05:11:45.228Z,18.02
2018-07-04T05:13:09.986Z,18.12
2018-07-04T05:14:20.022Z,18.13
2018-07-04T05:15:29.932Z,18.09
2018-07-04T05:16:40.165Z,18.08
2018-07-04T05:17:54.160Z,18.09
2018-07-04T05:19:13.967Z,18.10
2018-07-04T05:20:25.606Z,18.19
2018-07-04T05:21:36.307Z,18.18
2018-07-04T05:22:46.747Z,18.14
2018-07-04T05:23:56.663Z,18.15
2018-07-04T05:25:07.266Z,18.02
2018-07-04T05:26:17.617Z,17.82
2018-07-04T05:27:30.298Z,17.73
2018-07-04T05:28:46.092Z,17.85
2018-07-04T05:29:56.159Z,17.66
2018-07-04T05:31:11.250Z,17.56
2018-07-04T05:39:14.030Z,18.22
2018-07-04T05:40:24.620Z,18.34
2018-07-04T05:41:38.605Z,18.37
2018-07-04T05:42:48.459Z,18.43
2018-07-04T05:43:59.019Z,18.57
2018-07-04T05:46:34.177Z,18.52
2018-07-04T05:47:44.035Z,18.59
2018-07-04T05:48:55.439Z,18.69
2018-07-04T05:50:05.357Z,18.78
2018-07-04T05:51:15.947Z,18.95
2018-07-04T05:52:26.030Z,19.01
2018-07-04T05:53:36.727Z,19.10
2018-07-04T05:54:46.626Z,19.21
2018-07-04T05:55:58.512Z,19.23
2018-07-04T05:57:08.319Z,19.33
2018-07-04T05:58:18.285Z,19.35
2018-07-04T05:59:28.441Z,19.38
2018-07-04T06:00:39.572Z,19.31
2018-07-04T06:01:49.674Z,19.35
2018-07-04T06:03:01.150Z,19.42
2018-07-04T06:04:11.793Z,19.47
2018-07-04T06:05:21.917Z,19.49
2018-07-04T06:06:31.748Z,19.49
2018-07-04T06:07:42.319Z,19.52
2018-07-04T06:08:52.022Z,19.37
2018-07-04T06:10:01.794Z,19.30
2018-07-04T06:11:12.069Z,19.18
2018-07-04T06:12:21.983Z,19.18
2018-07-04T06:13:31.705Z,19.35
2018-07-04T06:14:46.762Z,19.43
2018-07-04T06:15:57.406Z,19.51
2018-07-04T06:17:08.246Z,19.57
2018-07-04T06:18:18.487Z,19.66
2018-07-04T06:19:28.256Z,19.73
2018-07-04T06:20:40.543Z,19.84
2018-07-04T06:21:50.453Z,19.80
2018-07-04T06:24:17.766Z,19.82
2018-07-04T06:25:27.446Z,19.89
2018-07-04T06:26:38.726Z,19.99
2018-07-04T06:27:49.517Z,20.18
2018-07-04T06:28:59.798Z,20.30
2018-07-04T06:30:15.261Z,20.29
2018-07-04T06:31:26.471Z,20.21
2018-07-04T06:32:36.815Z,20.01
2018-07-04T06:33:46.788Z,19.96
2018-07-04T06:34:58.778Z,19.83
2018-07-04T06:36:08.734Z,19.86
2018-07-04T06:37:18.417Z,19.86
2018-07-04T06:38:22.157Z,19.87
2018-07-04T06:39:25.814Z,19.94
2018-07-04T06:40:30.354Z,19.99
2018-07-04T06:41:36.396Z,19.92
2018-07-04T06:42:41.080Z,20.02
2018-07-04T06:43:44.794Z,20.09
2018-07-04T06:44:48.519Z,20.15
2018-07-04T06:45:53.695Z,20.22
2018-07-04T06:46:57.419Z,20.37
2018-07-04T06:48:02.113Z,20.45
2018-07-04T06:49:06.095Z,20.43
2018-07-04T06:50:10.486Z,20.49
2018-07-04T06:51:14.640Z,20.66
2018-07-04T06:52:22.417Z,20.86
2018-07-04T06:54:37.256Z,21.06
2018-07-04T06:55:41.624Z,21.24
2018-07-04T06:56:45.304Z,21.43
2018-07-04T06:57:49.269Z,21.58
2018-07-04T06:58:52.972Z,21.51
2018-07-04T06:59:57.488Z,21.47
2018-07-04T07:01:01.222Z,21.52
2018-07-04T07:02:12.184Z,21.56
2018-07-04T07:03:22.783Z,21.74
2018-07-04T07:05:55.190Z,21.80
2018-07-04T07:07:05.474Z,21.73
2018-07-04T07:08:15.528Z,21.86
2018-07-04T07:09:26.339Z,21.86
2018-07-04T07:11:39.807Z,22.12
2018-07-04T07:12:50.481Z,22.38
2018-07-04T07:14:05.851Z,22.60
2018-07-04T07:15:15.742Z,22.51
2018-07-04T07:16:27.535Z,22.55
2018-07-04T07:17:38.569Z,22.74
2018-07-04T07:18:48.511Z,22.98
2018-07-04T07:19:58.710Z,23.13
2018-07-04T07:21:10.652Z,23.27
2018-07-04T07:22:22.448Z,23.26
2018-07-04T07:23:34.020Z,23.17
2018-07-04T07:24:43.882Z,23.23
2018-07-04T07:25:56.078Z,23.43
2018-07-04T07:27:06.008Z,23.37
2018-07-04T07:28:19.871Z,22.91
2018-07-04T07:29:29.920Z,23.12
2018-07-04T07:30:41.322Z,23.29
2018-07-04T07:31:51.247Z,23.61
2018-07-04T07:33:05.040Z,23.71
2018-07-04T07:34:24.245Z,23.79
2018-07-04T07:35:34.417Z,23.69
2018-07-04T07:36:45.212Z,23.81
2018-07-04T07:37:54.963Z,24.04
2018-07-04T07:40:28.694Z,24.60
2018-07-04T07:41:39.046Z,24.90
2018-07-04T07:42:50.192Z,24.88
2018-07-04T07:44:00.313Z,24.92
2018-07-04T07:45:10.387Z,24.93
2018-07-04T07:46:20.279Z,24.83
2018-07-04T07:47:30.440Z,24.64
2018-07-04T07:48:40.230Z,24.38
2018-07-04T07:49:52.473Z,24.41
2018-07-04T07:51:02.921Z,24.35
2018-07-04T07:52:12.728Z,24.51
2018-07-04T07:53:23.104Z,24.64
2018-07-04T07:54:33.111Z,24.45
2018-07-04T07:55:42.991Z,24.54
2018-07-04T07:56:52.910Z,24.59
2018-07-04T07:58:07.319Z,24.60
2018-07-04T07:59:20.114Z,24.87
2018-07-04T08:00:30.842Z,24.86
2018-07-04T08:01:41.326Z,24.99
2018-07-04T08:02:51.354Z,24.94
2018-07-04T08:04:01.749Z,24.92
2018-07-04T08:05:17.893Z,25.12
2018-07-04T08:06:27.726Z,25.45
2018-07-04T08:07:37.589Z,25.73
2018-07-04T08:08:48.698Z,25.67
2018-07-04T08:09:58.432Z,25.68
2018-07-04T08:11:10.435Z,25.96
2018-07-04T08:12:20.222Z,26.12
2018-07-04T08:13:31.410Z,25.99
2018-07-04T08:14:41.930Z,26.07
2018-07-04T08:15:52.338Z,26.04
2018-07-04T08:17:03.869Z,26.13
2018-07-04T08:18:14.579Z,25.93
2018-07-04T08:19:24.384Z,25.92
2018-07-04T08:20:35.174Z,25.77
2018-07-04T08:21:46.681Z,25.83
2018-07-04T08:22:59.371Z,25.88
2018-07-04T08:24:11.423Z,25.96
2018-07-04T08:25:26.348Z,26.06
2018-07-04T08:26:36.819Z,26.04
2018-07-04T08:27:47.277Z,26.10
2018-07-04T08:28:58.096Z,25.79
2018-07-04T08:30:09.437Z,25.71
2018-07-04T08:31:21.848Z,25.72
2018-07-04T08:32:32.310Z,25.97
2018-07-04T08:33:42.430Z,26.18
2018-07-04T08:34:53.310Z,26.34
2018-07-04T08:36:03.233Z,26.62
2018-07-04T08:37:13.121Z,26.97
2018-07-04T08:38:23.553Z,27.18
2018-07-04T08:39:35.189Z,27.28
2018-07-04T08:40:46.399Z,27.35
2018-07-04T08:41:56.148Z,27.45
2018-07-04T08:43:06.323Z,27.49
2018-07-04T08:44:17.360Z,27.46
2018-07-04T08:45:27.739Z,27.61
2018-07-04T08:46:38.663Z,27.50
2018-07-04T08:47:48.451Z,27.35
2018-07-04T08:48:58.594Z,27.22
2018-07-04T08:50:10.570Z,27.46
2018-07-04T08:51:21.551Z,27.72
2018-07-04T08:52:33.533Z,26.94
2018-07-04T08:53:46.483Z,26.49
2018-07-04T08:55:00.389Z,26.70
2018-07-04T08:56:11.022Z,27.23
2018-07-04T08:57:21.788Z,27.64
2018-07-04T08:58:34.681Z,27.72
2018-07-04T08:59:47.697Z,28.05
2018-07-04T09:00:58.625Z,27.70
2018-07-04T09:02:09.888Z,27.74
2018-07-04T09:03:22.416Z,27.63
2018-07-04T09:04:32.691Z,27.75
2018-07-04T09:05:42.603Z,27.70
2018-07-04T09:06:53.309Z,27.14
2018-07-04T09:08:03.378Z,26.96
2018-07-04T09:09:16.944Z,26.83
2018-07-04T09:10:27.761Z,26.82
2018-07-04T09:11:40.000Z,27.09
2018-07-04T09:12:52.960Z,27.32
2018-07-04T09:14:04.464Z,27.48
2018-07-04T09:15:15.537Z,27.10
2018-07-04T09:16:29.962Z,26.78
2018-07-04T09:17:41.295Z,26.62
2018-07-04T09:18:53.816Z,26.69
2018-07-04T09:20:05.729Z,26.98
2018-07-04T09:21:16.785Z,27.35
2018-07-04T09:22:27.121Z,26.76
2018-07-04T09:23:37.073Z,26.73
2018-07-04T09:24:47.618Z,27.00
2018-07-04T09:25:57.482Z,27.40
2018-07-04T09:30:31.393Z,27.60
2018-07-04T09:31:41.716Z,27.33
2018-07-04T09:32:54.433Z,27.49
2018-07-04T09:34:05.002Z,27.45
2018-07-04T09:35:16.214Z,27.31
2018-07-04T09:36:26.249Z,27.34
2018-07-04T09:37:36.097Z,27.51
2018-07-04T09:38:46.601Z,27.37
2018-07-04T09:40:00.621Z,27.37
2018-07-04T09:41:11.605Z,27.43
2018-07-04T09:42:21.893Z,27.75
2018-07-04T09:43:33.474Z,27.74
2018-07-04T09:44:45.097Z,27.50
2018-07-04T09:45:55.972Z,27.77
2018-07-04T09:47:06.597Z,28.42
2018-07-04T09:49:47.811Z,28.12
2018-07-04T09:50:58.144Z,28.10
2018-07-04T09:52:22.229Z,27.80
2018-07-04T09:53:37.939Z,27.70
2018-07-04T09:54:50.297Z,28.15
2018-07-04T09:56:02.567Z,27.85
2018-07-04T09:57:19.837Z,27.88
2018-07-04T09:59:58.369Z,27.79
2018-07-04T10:01:14.247Z,27.81
2018-07-04T10:05:19.559Z,28.02
2018-07-04T10:09:29.348Z,28.03
2018-07-04T10:10:43.463Z,28.38
2018-07-04T10:11:53.808Z,28.25
2018-07-04T10:17:11.206Z,27.34
2018-07-04T10:19:47.835Z,27.26
2018-07-04T10:21:01.996Z,27.48
2018-07-04T10:22:13.334Z,27.89
2018-07-04T10:23:24.728Z,28.12
2018-07-04T10:24:43.283Z,28.29
2018-07-04T10:25:55.804Z,28.00
2018-07-04T10:27:07.724Z,27.97
2018-07-04T10:28:20.383Z,27.47
2018-07-04T10:29:36.958Z,27.32
2018-07-04T10:30:52.762Z,27.17
2018-07-04T10:36:16.168Z,27.48
2018-07-04T10:37:32.721Z,27.93
2018-07-04T10:38:50.498Z,28.10
2018-07-04T10:41:31.605Z,27.43
2018-07-04T10:42:55.990Z,27.94
2018-07-04T10:44:09.973Z,27.50
2018-07-04T10:46:38.726Z,27.60
2018-07-04T10:49:16.660Z,28.22
2018-07-04T10:56:09.299Z,27.65
2018-07-04T10:58:37.041Z,27.82
2018-07-04T10:59:56.250Z,27.78
2018-07-04T11:02:36.809Z,27.28
2018-07-04T11:03:56.047Z,27.08
2018-07-04T11:05:10.062Z,27.12
2018-07-04T11:06:23.479Z,27.10
2018-07-04T11:07:35.961Z,27.22
2018-07-04T11:10:04.069Z,27.45
2018-07-04T11:11:15.032Z,27.58
2018-07-04T11:13:45.672Z,27.57
2018-07-04T11:14:59.267Z,27.35
2018-07-04T11:16:10.807Z,27.60
2018-07-04T11:17:21.558Z,27.50
2018-07-04T11:18:35.688Z,27.89
2018-07-04T11:21:10.108Z,27.81
2018-07-04T11:23:47.402Z,28.77
2018-07-04T11:25:03.717Z,29.19
2018-07-04T11:27:45.600Z,27.61
2018-07-04T11:31:36.404Z,27.34
2018-07-04T11:32:47.390Z,27.10
2018-07-04T11:33:58.485Z,27.27
2018-07-04T11:35:09.126Z,27.11
2018-07-04T11:37:41.142Z,27.01
2018-07-04T11:38:52.708Z,26.98
2018-07-04T11:40:04.318Z,26.80
2018-07-04T11:41:19.572Z,26.79
2018-07-04T11:42:35.187Z,26.62
2018-07-04T11:43:48.163Z,26.82
2018-07-04T11:44:59.060Z,26.57
2018-07-04T11:47:22.498Z,27.72
2018-07-04T11:48:29.281Z,28.17
2018-07-04T11:49:34.086Z,28.07
2018-07-04T11:51:51.419Z,27.77
2018-07-04T11:53:01.912Z,27.81
2018-07-04T11:54:06.665Z,28.06
2018-07-04T11:55:15.397Z,28.24
2018-07-04T11:56:19.853Z,28.04
2018-07-04T11:57:26.981Z,28.03
2018-07-04T11:59:57.190Z,27.85
2018-07-04T12:01:02.232Z,27.68
2018-07-04T12:02:06.936Z,27.61
2018-07-04T12:03:15.535Z,27.68
2018-07-04T12:04:25.667Z,27.65
2018-07-04T12:05:38.014Z,27.65
2018-07-04T12:06:50.653Z,27.89
2018-07-04T12:07:55.489Z,27.67
2018-07-04T12:09:06.311Z,27.40
2018-07-04T12:10:11.248Z,27.27
2018-07-04T12:11:15.071Z,27.02
2018-07-04T12:12:19.285Z,26.90
2018-07-04T12:14:36.428Z,26.96
2018-07-04T12:15:45.518Z,27.07
2018-07-04T12:16:54.127Z,26.62
2018-07-04T12:19:21.642Z,27.02
2018-07-04T12:20:31.106Z,26.93
2018-07-04T12:21:36.308Z,27.46
2018-07-04T12:22:45.050Z,27.34
2018-07-04T12:23:52.377Z,27.05
2018-07-04T12:24:57.394Z,26.70
2018-07-04T12:26:01.952Z,26.62
2018-07-04T12:31:18.216Z,27.12
2018-07-04T12:32:24.297Z,26.65
2018-07-04T12:33:29.636Z,26.82
2018-07-04T12:34:36.117Z,26.54
2018-07-04T12:37:02.451Z,26.99
2018-07-04T12:39:24.023Z,26.88
2018-07-04T12:40:50.121Z,27.24
2018-07-04T12:48:44.963Z,27.37
2018-07-04T12:52:15.114Z,26.95
2018-07-04T12:53:20.621Z,26.97
2018-07-04T12:54:32.366Z,27.18
2018-07-04T12:57:09.699Z,26.97
2018-07-04T12:58:21.428Z,27.31
2018-07-04T13:00:53.996Z,27.61
2018-07-04T13:02:06.818Z,27.28
2018-07-04T13:03:20.235Z,27.44
2018-07-04T13:04:30.778Z,27.82
2018-07-04T13:05:47.455Z,27.75
2018-07-04T13:07:00.776Z,27.41
2018-07-04T13:08:15.867Z,26.72
2018-07-04T13:09:30.514Z,26.66
2018-07-04T13:10:41.788Z,26.55
2018-07-04T13:11:56.377Z,26.90
2018-07-04T13:13:07.969Z,27.31
2018-07-04T13:14:20.264Z,27.15
2018-07-04T13:15:30.571Z,27.12
2018-07-04T13:17:57.750Z,26.57
2018-07-04T13:19:11.729Z,26.08
2018-07-04T13:20:23.165Z,26.39
2018-07-04T13:21:37.304Z,26.35
2018-07-04T13:24:12.747Z,26.44
2018-07-04T13:25:28.112Z,26.12
2018-07-04T13:26:45.887Z,26.41
2018-07-04T13:27:59.060Z,26.36
2018-07-04T13:29:10.424Z,25.59
2018-07-04T13:30:20.299Z,25.43
2018-07-04T13:33:03.822Z,25.49
2018-07-04T13:34:20.343Z,25.66
2018-07-04T13:36:48.284Z,25.90
2018-07-04T13:37:59.386Z,25.83
2018-07-04T13:40:41.139Z,25.90
2018-07-04T13:41:52.517Z,26.01
2018-07-04T13:43:02.447Z,25.82
2018-07-04T13:44:22.903Z,26.04
2018-07-04T15:28:40.570Z,25.44
2018-07-04T15:29:52.814Z,25.59
2018-07-04T15:31:05.332Z,25.64
2018-07-04T15:32:17.123Z,25.58
2018-07-04T15:33:31.466Z,25.59
2018-07-04T15:34:42.858Z,25.48
2018-07-04T15:35:52.605Z,25.75
2018-07-04T15:37:04.539Z,26.03
2018-07-04T15:38:15.065Z,25.81
2018-07-04T15:39:26.775Z,25.75
2018-07-04T15:40:36.713Z,25.61
2018-07-04T15:41:46.555Z,25.28
2018-07-04T15:42:56.566Z,25.51
2018-07-04T15:44:07.789Z,25.67
2018-07-04T15:45:20.577Z,25.59
2018-07-04T15:46:31.113Z,25.58
2018-07-04T15:47:40.998Z,25.27
2018-07-04T15:48:50.902Z,25.20
2018-07-04T15:50:00.977Z,25.38
2018-07-04T15:51:11.401Z,25.43
2018-07-04T15:52:25.068Z,25.40
2018-07-04T15:53:34.924Z,25.07
2018-07-04T15:54:45.704Z,24.98
2018-07-04T15:55:57.599Z,25.27
2018-07-04T15:57:12.490Z,25.12
2018-07-04T15:58:22.626Z,25.17
2018-07-04T15:59:32.885Z,24.89
2018-07-04T16:00:42.908Z,24.89
2018-07-04T16:03:12.499Z,24.81
2018-07-04T16:04:23.708Z,24.74
2018-07-04T16:05:46.132Z,24.62
2018-07-04T16:08:25.964Z,24.22
2018-07-04T16:09:38.847Z,24.05
2018-07-04T16:10:50.256Z,24.02
2018-07-04T16:12:00.251Z,23.96
2018-07-04T16:13:10.486Z,24.07
2018-07-04T16:15:40.191Z,24.19
2018-07-04T16:16:51.197Z,23.88
2018-07-04T16:18:02.637Z,23.72
2018-07-04T16:19:14.248Z,23.83
2018-07-04T16:20:26.611Z,23.63
2018-07-04T16:21:39.899Z,23.61
2018-07-04T16:22:55.969Z,23.74
2018-07-04T16:24:10.153Z,23.97
2018-07-04T16:25:21.001Z,24.09
2018-07-04T16:26:32.292Z,24.16
2018-07-04T16:27:43.266Z,24.20
2018-07-04T16:28:53.789Z,24.12
2018-07-04T16:30:04.348Z,24.02
2018-07-04T16:31:14.222Z,24.22
2018-07-04T16:32:25.807Z,24.19
2018-07-04T16:33:37.450Z,24.16
2018-07-04T16:34:52.366Z,24.27
2018-07-04T16:36:02.407Z,23.86
2018-07-04T16:37:13.170Z,23.62
2018-07-04T16:38:26.640Z,23.78
2018-07-04T16:39:38.364Z,24.08
2018-07-04T16:40:49.558Z,23.96
2018-07-04T16:42:03.376Z,23.92
2018-07-04T16:43:18.286Z,23.76
2018-07-04T16:44:32.349Z,23.72
2018-07-04T16:45:45.631Z,23.98
2018-07-04T16:46:55.303Z,24.09
2018-07-04T16:48:07.349Z,23.95
2018-07-04T16:49:20.508Z,23.71
2018-07-04T16:50:33.958Z,23.66
2018-07-04T16:51:44.491Z,23.70
2018-07-04T16:52:54.824Z,23.69
2018-07-04T16:54:07.763Z,23.87
2018-07-04T16:55:24.366Z,23.96
2018-07-04T16:56:37.885Z,23.71
2018-07-04T16:57:49.763Z,23.63
2018-07-04T16:59:02.802Z,23.76
2018-07-04T17:00:18.368Z,23.83
2018-07-04T17:01:28.845Z,23.70
2018-07-04T17:02:43.562Z,23.76
2018-07-04T17:03:55.110Z,23.69
2018-07-04T17:05:07.157Z,23.55
2018-07-04T17:06:18.475Z,23.50
2018-07-04T17:07:28.299Z,23.61
2018-07-04T17:08:38.171Z,23.63
2018-07-04T17:09:49.269Z,23.59
2018-07-04T17:10:59.095Z,23.63
2018-07-04T17:12:10.247Z,23.75
2018-07-04T17:13:21.805Z,23.73
2018-07-04T17:14:32.238Z,23.63
2018-07-04T17:15:43.467Z,23.45
2018-07-04T17:16:56.347Z,23.61
2018-07-04T17:18:06.421Z,23.47
2018-07-04T17:19:16.428Z,23.44
2018-07-04T17:20:26.352Z,23.53
2018-07-04T17:21:36.449Z,23.51
2018-07-04T17:22:46.923Z,23.43
2018-07-04T17:23:57.298Z,23.49
2018-07-04T17:25:08.384Z,23.71
2018-07-04T17:26:18.254Z,23.93
2018-07-04T17:27:28.294Z,24.05
2018-07-04T17:28:39.325Z,23.96
2018-07-04T17:29:49.045Z,23.94
2018-07-04T17:30:59.697Z,23.85
2018-07-04T17:32:12.592Z,23.79
2018-07-04T17:33:22.629Z,23.75
2018-07-04T17:34:32.403Z,23.58
2018-07-04T17:35:42.307Z,23.66
2018-07-04T17:36:52.866Z,23.64
2018-07-04T17:38:06.831Z,23.91
2018-07-04T17:39:21.494Z,24.17
2018-07-04T17:40:31.884Z,24.17
2018-07-04T17:41:42.645Z,23.95
2018-07-04T17:42:53.432Z,23.99
2018-07-04T17:44:03.497Z,24.01
2018-07-04T17:45:16.591Z,24.12
2018-07-04T17:46:27.418Z,24.21
2018-07-04T17:47:38.489Z,24.23
2018-07-04T17:48:48.366Z,24.34
2018-07-04T17:49:58.173Z,24.52
2018-07-04T17:51:08.608Z,24.57
2018-07-04T17:52:18.602Z,24.69
2018-07-04T17:53:30.873Z,24.81
2018-07-04T17:54:40.914Z,24.85
2018-07-04T17:55:52.677Z,24.79
2018-07-04T17:57:07.929Z,24.90
2018-07-04T17:58:19.522Z,24.97
2018-07-04T17:59:31.303Z,24.91
2018-07-04T18:00:42.410Z,24.85
2018-07-04T18:01:53.047Z,24.80
2018-07-04T18:03:07.358Z,24.77
2018-07-04T18:04:19.356Z,24.75
2018-07-04T18:05:29.905Z,24.70
2018-07-04T18:06:42.367Z,24.81
2018-07-04T18:07:54.673Z,24.76
2018-07-04T18:09:07.132Z,24.69
2018-07-04T18:11:35.477Z,24.26
2018-07-04T18:12:45.695Z,24.26
2018-07-04T18:13:55.901Z,24.27
2018-07-04T18:15:07.560Z,24.21
2018-07-04T18:16:18.120Z,23.99
2018-07-04T18:17:32.240Z,23.91
2018-07-04T18:18:44.990Z,23.89
2018-07-04T18:19:55.824Z,23.69
2018-07-04T18:21:11.783Z,23.57
2018-07-04T18:22:23.647Z,23.55
2018-07-04T18:23:34.176Z,23.67
2018-07-04T18:24:48.676Z,23.80
2018-07-04T18:26:05.889Z,23.83
2018-07-04T18:27:18.192Z,23.91
2018-07-04T18:28:29.233Z,23.98
2018-07-04T18:29:42.131Z,23.82
2018-07-04T18:30:53.775Z,23.73
2018-07-04T18:32:06.845Z,23.71
2018-07-04T18:33:17.226Z,23.75
2018-07-04T18:34:32.609Z,23.80
2018-07-04T18:35:44.007Z,23.70